createdAt,value
2023-04-21T00:00:16.674Z,99421.91
2023-04-21T00:01:18.265Z,99420.97
2023-04-21T00:02:19.972Z,99418.44
2023-04-21T00:03:22.565Z,99417.94
2023-04-21T00:04:24.597Z,99414.38
2023-04-21T00:05:26.329Z,99419.16
2023-04-21T00:06:27.964Z,99421.56
2023-04-21T00:07:29.509Z,99414.44
2023-04-21T00:08:31.052Z,99413.00
2023-04-21T00:09:32.618Z,99413.72
2023-04-21T00:10:34.594Z,99415.25
2023-04-21T00:11:36.110Z,99416.59
2023-04-21T00:12:37.942Z,99416.41
2023-04-21T00:13:41.861Z,99413.63
2023-04-21T00:14:43.413Z,99416.88
2023-04-21T00:15:44.991Z,99410.81
2023-04-21T00:16:46.597Z,99412.91
2023-04-21T00:17:48.196Z,99406.13
2023-04-21T00:18:49.792Z,99411.50
2023-04-21T00:19:51.374Z,99409.09
2023-04-21T00:20:53.006Z,99414.44
2023-04-21T00:21:54.544Z,99416.97
2023-04-21T00:22:57.036Z,99404.19
2023-04-21T00:23:58.617Z,99408.25
2023-04-21T00:25:00.200Z,99410.78
2023-04-21T00:26:01.729Z,99412.63
2023-04-21T00:27:03.434Z,99414.44
2023-04-21T00:28:05.053Z,99406.81
2023-04-21T00:29:06.632Z,99412.16
2023-04-21T00:30:08.715Z,99416.44
2023-04-21T00:31:11.768Z,99416.34
2023-04-21T00:32:13.417Z,99415.50
2023-04-21T00:33:15.028Z,99412.38
2023-04-21T00:34:16.612Z,99414.66
2023-04-21T00:35:18.266Z,99420.50
2023-04-21T00:36:19.873Z,99404.19
2023-04-21T00:37:21.938Z,99412.63
2023-04-21T00:38:23.489Z,99421.56
2023-04-21T00:39:25.052Z,99409.53
2023-04-21T00:40:26.645Z,99412.16
2023-04-21T00:41:28.969Z,99418.81
2023-04-21T00:42:31.376Z,99411.91
2023-04-21T00:43:32.946Z,99411.91
2023-04-21T00:44:34.575Z,99401.78
2023-04-21T00:45:36.243Z,99408.34
2023-04-21T00:46:37.990Z,99408.34
2023-04-21T00:47:39.604Z,99407.63
2023-04-21T00:48:41.230Z,99405.97
2023-04-21T00:49:43.025Z,99408.91
2023-04-21T00:50:45.310Z,99404.00
2023-04-21T00:51:46.927Z,99405.56
2023-04-21T00:52:50.326Z,99408.28
2023-04-21T00:53:52.447Z,99407.25
2023-04-21T00:54:54.195Z,99408.09
2023-04-21T00:55:56.071Z,99408.09
2023-04-21T00:56:58.117Z,99411.28
2023-04-21T00:58:00.815Z,99407.25
2023-04-21T00:59:03.475Z,99402.66
2023-04-21T01:00:05.999Z,99403.53
2023-04-21T01:01:07.805Z,99399.00
2023-04-21T01:02:10.878Z,99402.19
2023-04-21T01:03:13.179Z,99399.94
2023-04-21T01:04:16.734Z,99395.44
2023-04-21T01:05:18.321Z,99406.97
2023-04-21T01:06:20.028Z,99405.63
2023-04-21T01:07:21.856Z,99403.13
2023-04-21T01:08:24.349Z,99399.88
2023-04-21T01:09:27.096Z,99399.47
2023-04-21T01:10:28.695Z,99404.41
2023-04-21T01:11:30.407Z,99401.69
2023-04-21T01:12:32.026Z,99397.22
2023-04-21T01:13:33.891Z,99396.78
2023-04-21T01:14:37.400Z,99392.56
2023-04-21T01:15:38.984Z,99397.31
2023-04-21T01:16:40.597Z,99396.56
2023-04-21T01:17:43.176Z,99395.50
2023-04-21T01:18:45.581Z,99393.25
2023-04-21T01:19:48.014Z,99395.63
2023-04-21T01:20:49.678Z,99402.09
2023-04-21T01:21:51.724Z,99396.25
2023-04-21T01:22:53.283Z,99396.44
2023-04-21T01:23:55.028Z,99396.38
2023-04-21T01:24:56.604Z,99382.56
2023-04-21T01:25:58.424Z,99398.34
2023-04-21T01:27:00.000Z,99397.06
2023-04-21T01:28:03.290Z,99402.72
2023-04-21T01:29:04.890Z,99400.50
2023-04-21T01:30:08.763Z,99391.47
2023-04-21T01:31:10.506Z,99381.13
2023-04-21T01:32:18.185Z,99399.97
2023-04-21T01:33:21.241Z,99392.88
2023-04-21T01:34:22.862Z,99395.41
2023-04-21T01:35:24.452Z,99392.66
2023-04-21T01:36:26.020Z,99387.16
2023-04-21T01:37:30.641Z,99395.94
2023-04-21T01:38:32.269Z,99385.81
2023-04-21T01:39:33.906Z,99399.38
2023-04-21T01:40:35.660Z,99390.91
2023-04-21T01:41:37.220Z,99391.44
2023-04-21T01:42:41.538Z,99383.06
2023-04-21T01:43:43.119Z,99390.72
2023-04-21T01:44:44.859Z,99390.31
2023-04-21T01:45:48.208Z,99397.53
2023-04-21T01:46:49.778Z,99393.53
2023-04-21T01:47:52.861Z,99394.41
2023-04-21T01:48:54.646Z,99389.78
2023-04-21T01:49:56.327Z,99396.88
2023-04-21T01:50:57.962Z,99393.66
2023-04-21T01:51:59.547Z,99395.94
2023-04-21T01:53:01.154Z,99386.75
2023-04-21T01:54:02.715Z,99391.78
2023-04-21T01:55:04.572Z,99393.44
2023-04-21T01:56:06.524Z,99399.31
2023-04-21T01:57:08.204Z,99386.25
2023-04-21T01:58:09.902Z,99399.81
2023-04-21T01:59:11.577Z,99392.19
2023-04-21T02:00:13.566Z,99400.16
2023-04-21T02:01:19.351Z,99393.53
2023-04-21T02:02:21.043Z,99399.31
2023-04-21T02:03:22.911Z,99395.53
2023-04-21T02:04:24.901Z,99393.44
2023-04-21T02:05:26.720Z,99390.94
2023-04-21T02:06:28.412Z,99390.19
2023-04-21T02:07:30.017Z,99396.69
2023-04-21T02:08:31.777Z,99397.31
2023-04-21T02:09:33.383Z,99396.06
2023-04-21T02:10:34.986Z,99399.63
2023-04-21T02:11:36.581Z,99402.63
2023-04-21T02:12:38.266Z,99403.13
2023-04-21T02:13:39.822Z,99407.19
2023-04-21T02:14:41.426Z,99404.47
2023-04-21T02:15:43.259Z,99401.75
2023-04-21T02:16:45.000Z,99401.00
2023-04-21T02:17:46.756Z,99402.28
2023-04-21T02:18:48.364Z,99399.47
2023-04-21T02:19:50.016Z,99405.00
2023-04-21T02:20:52.025Z,99407.72
2023-04-21T02:21:53.568Z,99404.13
2023-04-21T02:22:56.725Z,99409.25
2023-04-21T02:23:58.617Z,99407.47
2023-04-21T02:25:01.272Z,99409.16
2023-04-21T02:26:02.901Z,99399.84
2023-04-21T02:27:07.089Z,99408.72
2023-04-21T02:28:08.662Z,99409.66
2023-04-21T02:29:10.302Z,99405.16
2023-04-21T02:30:13.319Z,99407.38
2023-04-21T02:31:17.925Z,99411.16
2023-04-21T02:32:25.587Z,99405.72
2023-04-21T02:33:27.777Z,99404.69
2023-04-21T02:34:29.388Z,99400.00
2023-04-21T02:35:31.428Z,99411.94
2023-04-21T02:36:33.561Z,99407.56
2023-04-21T02:37:35.485Z,99407.06
2023-04-21T02:38:37.059Z,99417.72
2023-04-21T02:39:38.644Z,99408.72
2023-04-21T02:40:40.574Z,99415.75
2023-04-21T02:41:42.194Z,99417.06
2023-04-21T02:42:43.768Z,99422.84
2023-04-21T02:43:45.313Z,99419.94
2023-04-21T02:44:46.858Z,99426.63
2023-04-21T02:45:48.467Z,99418.78
2023-04-21T02:46:50.140Z,99420.44
2023-04-21T02:47:51.809Z,99424.00
2023-04-21T02:48:53.388Z,99422.13
2023-04-21T02:49:54.924Z,99420.44
2023-04-21T02:50:56.463Z,99420.88
2023-04-21T02:51:58.464Z,99421.09
2023-04-21T02:53:00.139Z,99414.81
2023-04-21T02:54:01.821Z,99416.69
2023-04-21T02:55:03.855Z,99416.97
2023-04-21T02:56:05.778Z,99417.38
2023-04-21T02:57:07.303Z,99416.28
2023-04-21T02:58:08.882Z,99411.09
2023-04-21T02:59:10.423Z,99415.66
2023-04-21T03:00:12.574Z,99418.63
2023-04-21T03:01:14.365Z,99421.50
2023-04-21T03:02:15.972Z,99418.59
2023-04-21T03:03:17.768Z,99416.47
2023-04-21T03:04:19.660Z,99429.28
2023-04-21T03:05:21.330Z,99426.41
2023-04-21T03:06:22.870Z,99436.66
2023-04-21T03:07:24.422Z,99438.53
2023-04-21T03:08:26.309Z,99451.59
2023-04-21T03:09:27.887Z,99438.13
2023-04-21T03:10:29.459Z,99431.88
2023-04-21T03:11:31.040Z,99431.44
2023-04-21T03:12:33.176Z,99428.28
2023-04-21T03:13:34.823Z,99428.50
2023-04-21T03:14:36.361Z,99422.44
2023-04-21T03:15:37.938Z,99422.31
2023-04-21T03:16:39.531Z,99427.72
2023-04-21T03:17:41.271Z,99428.78
2023-04-21T03:18:42.875Z,99428.00
2023-04-21T03:19:46.492Z,99427.66
2023-04-21T03:20:48.056Z,99420.09
2023-04-21T03:21:49.601Z,99419.34
2023-04-21T03:22:53.599Z,99423.09
2023-04-21T03:23:55.260Z,99415.63
2023-04-21T03:24:56.846Z,99421.84
2023-04-21T03:25:58.482Z,99406.31
2023-04-21T03:27:00.237Z,99419.41
2023-04-21T03:28:01.941Z,99415.38
2023-04-21T03:29:03.581Z,99417.06
2023-04-21T03:30:06.270Z,99414.28
2023-04-21T03:31:07.868Z,99417.81
2023-04-21T03:32:09.500Z,99414.28
2023-04-21T03:33:11.523Z,99410.09
2023-04-21T03:34:13.192Z,99420.81
2023-04-21T03:35:14.997Z,99423.22
2023-04-21T03:36:16.600Z,99417.69
2023-04-21T03:37:18.192Z,99420.13
2023-04-21T03:38:19.776Z,99416.47
2023-04-21T03:39:21.984Z,99414.88
2023-04-21T03:40:25.010Z,99420.03
2023-04-21T03:41:26.606Z,99413.88
2023-04-21T03:42:28.202Z,99419.81
2023-04-21T03:43:31.549Z,99414.59
2023-04-21T03:44:33.207Z,99413.13
2023-04-21T03:45:36.561Z,99421.69
2023-04-21T03:46:38.228Z,99418.34
2023-04-21T03:47:40.701Z,99414.59
2023-04-21T03:48:42.336Z,99412.28
2023-04-21T03:49:43.891Z,99420.44
2023-04-21T03:50:45.439Z,99414.44
2023-04-21T03:51:47.135Z,99422.38
2023-04-21T03:52:48.688Z,99414.94
2023-04-21T03:53:50.234Z,99418.69
2023-04-21T03:54:51.861Z,99422.97
2023-04-21T03:55:53.398Z,99424.84
2023-04-21T03:56:54.986Z,99414.88
2023-04-21T03:57:56.796Z,99414.69
2023-04-21T03:58:58.376Z,99427.81
2023-04-21T03:59:59.912Z,99428.84
2023-04-21T04:01:01.740Z,99430.63
2023-04-21T04:02:03.397Z,99432.28
2023-04-21T04:03:05.131Z,99430.63
2023-04-21T04:04:07.007Z,99438.91
2023-04-21T04:05:08.949Z,99435.75
2023-04-21T04:06:10.583Z,99439.84
2023-04-21T04:07:12.453Z,99432.09
2023-04-21T04:08:14.027Z,99435.34
2023-04-21T04:09:15.613Z,99434.13
2023-04-21T04:10:17.204Z,99429.13
2023-04-21T04:11:18.769Z,99434.16
2023-04-21T04:12:20.380Z,99427.09
2023-04-21T04:13:21.995Z,99434.53
2023-04-21T04:14:23.566Z,99434.25
2023-04-21T04:15:25.211Z,99429.63
2023-04-21T04:16:26.963Z,99432.75
2023-04-21T04:17:28.651Z,99435.00
2023-04-21T04:18:30.263Z,99433.88
2023-04-21T04:19:31.832Z,99430.13
2023-04-21T04:20:33.395Z,99434.41
2023-04-21T04:21:35.070Z,99440.22
2023-04-21T04:22:36.677Z,99440.69
2023-04-21T04:23:38.275Z,99459.78
2023-04-21T04:24:39.839Z,99449.25
2023-04-21T04:25:41.405Z,99436.22
2023-04-21T04:26:42.958Z,99450.25
2023-04-21T04:27:44.520Z,99445.41
2023-04-21T04:28:46.154Z,99442.38
2023-04-21T04:29:47.692Z,99438.84
2023-04-21T04:30:49.299Z,99449.09
2023-04-21T04:31:51.350Z,99442.13
2023-04-21T04:32:52.947Z,99450.00
2023-04-21T04:33:55.689Z,99453.25
2023-04-21T04:34:57.356Z,99454.38
2023-04-21T04:35:58.865Z,99452.22
2023-04-21T04:37:02.301Z,99451.59
2023-04-21T04:38:03.893Z,99451.03
2023-04-21T04:39:06.370Z,99451.22
2023-04-21T04:40:09.527Z,99455.44
2023-04-21T04:41:11.279Z,99458.56
2023-04-21T04:42:12.882Z,99466.97
2023-04-21T04:43:14.416Z,99456.44
2023-04-21T04:44:16.003Z,99457.53
2023-04-21T04:45:17.654Z,99466.25
2023-04-21T04:46:19.314Z,99459.19
2023-04-21T04:47:20.933Z,99453.25
2023-04-21T04:48:22.503Z,99457.00
2023-04-21T04:49:24.385Z,99457.13
2023-04-21T04:50:25.958Z,99448.59
2023-04-21T04:51:27.625Z,99446.69
2023-04-21T04:52:29.488Z,99455.38
2023-04-21T04:53:31.054Z,99452.03
2023-04-21T04:54:32.633Z,99452.97
2023-04-21T04:55:34.209Z,99448.25
2023-04-21T04:56:35.751Z,99456.53
2023-04-21T04:57:37.340Z,99446.59
2023-04-21T04:58:38.931Z,99454.78
2023-04-21T04:59:40.531Z,99447.34
2023-04-21T05:00:42.082Z,99451.19
2023-04-21T05:01:43.633Z,99447.22
2023-04-21T05:02:45.428Z,99445.72
2023-04-21T05:03:47.311Z,99448.13
2023-04-21T05:04:49.765Z,99450.66
2023-04-21T05:05:51.478Z,99443.81
2023-04-21T05:06:53.046Z,99455.44
2023-04-21T05:07:54.661Z,99450.03
2023-04-21T05:08:56.280Z,99452.22
2023-04-21T05:09:57.811Z,99447.06
2023-04-21T05:10:59.366Z,99448.03
2023-04-21T05:12:01.024Z,99455.53
2023-04-21T05:13:02.590Z,99450.00
2023-04-21T05:14:04.189Z,99448.38
2023-04-21T05:15:06.907Z,99455.50
2023-04-21T05:16:09.125Z,99454.66
2023-04-21T05:17:10.987Z,99463.28
2023-04-21T05:18:12.550Z,99452.88
2023-04-21T05:19:14.883Z,99466.53
2023-04-21T05:20:17.443Z,99456.75
2023-04-21T05:21:25.982Z,99464.53
2023-04-21T05:22:27.551Z,99464.56
2023-04-21T05:23:29.104Z,99469.25
2023-04-21T05:24:30.621Z,99465.69
2023-04-21T05:25:32.216Z,99463.06
2023-04-21T05:26:34.087Z,99456.75
2023-04-21T05:27:35.640Z,99464.81
2023-04-21T05:28:37.167Z,99453.81
2023-04-21T05:29:38.822Z,99459.75
2023-04-21T05:30:40.369Z,99465.56
2023-04-21T05:31:41.951Z,99467.03
2023-04-21T05:32:43.649Z,99465.38
2023-04-21T05:33:45.340Z,99460.38
2023-04-21T05:34:46.900Z,99461.00
2023-04-21T05:35:48.446Z,99455.69
2023-04-21T05:36:50.193Z,99461.72
2023-04-21T05:37:51.792Z,99460.38
2023-04-21T05:38:53.379Z,99458.19
2023-04-21T05:39:54.960Z,99457.03
2023-04-21T05:40:56.526Z,99453.75
2023-04-21T05:41:58.228Z,99453.34
2023-04-21T05:42:59.796Z,99459.09
2023-04-21T05:44:01.469Z,99460.63
2023-04-21T05:45:03.222Z,99452.78
2023-04-21T05:46:10.552Z,99452.78
2023-04-21T05:47:12.132Z,99461.81
2023-04-21T05:48:13.863Z,99466.09
2023-04-21T05:49:15.475Z,99460.06
2023-04-21T05:50:17.039Z,99459.22
2023-04-21T05:51:18.635Z,99466.28
2023-04-21T05:52:20.539Z,99461.28
2023-04-21T05:53:23.091Z,99459.50
2023-04-21T05:54:24.704Z,99447.44
2023-04-21T05:55:26.316Z,99457.25
2023-04-21T05:56:27.865Z,99450.81
2023-04-21T05:57:30.205Z,99454.59
2023-04-21T05:58:31.785Z,99455.38
2023-04-21T05:59:33.318Z,99453.13
2023-04-21T06:00:34.900Z,99458.78
2023-04-21T06:01:36.457Z,99440.81
2023-04-21T06:02:38.160Z,99450.66
2023-04-21T06:03:40.215Z,99449.66
2023-04-21T06:04:42.096Z,99452.31
2023-04-21T06:05:43.920Z,99446.78
2023-04-21T06:06:45.505Z,99452.38
2023-04-21T06:07:47.051Z,99449.34
2023-04-21T06:08:48.623Z,99450.75
2023-04-21T06:09:50.788Z,99453.56
2023-04-21T06:10:52.420Z,99452.72
2023-04-21T06:11:54.316Z,99451.47
2023-04-21T06:12:56.036Z,99453.72
2023-04-21T06:13:57.687Z,99451.13
2023-04-21T06:15:01.729Z,99455.44
2023-04-21T06:16:03.857Z,99457.44
2023-04-21T06:17:05.488Z,99456.38
2023-04-21T06:18:07.255Z,99454.00
2023-04-21T06:19:08.934Z,99449.34
2023-04-21T06:20:11.045Z,99460.75
2023-04-21T06:21:12.651Z,99456.25
2023-04-21T06:22:14.225Z,99455.59
2023-04-21T06:23:15.826Z,99453.09
2023-04-21T06:24:17.646Z,99449.41
2023-04-21T06:25:19.576Z,99448.94
2023-04-21T06:26:21.141Z,99450.41
2023-04-21T06:27:22.808Z,99452.16
2023-04-21T06:28:24.405Z,99442.03
2023-04-21T06:29:26.059Z,99448.59
2023-04-21T06:30:27.645Z,99453.38
2023-04-21T06:31:29.260Z,99451.72
2023-04-21T06:32:30.876Z,99456.31
2023-04-21T06:33:32.676Z,99453.16
2023-04-21T06:34:34.301Z,99451.50
2023-04-21T06:35:35.889Z,99449.13
2023-04-21T06:36:37.460Z,99446.34
2023-04-21T06:37:39.046Z,99447.00
2023-04-21T06:38:40.663Z,99455.25
2023-04-21T06:39:42.302Z,99455.09
2023-04-21T06:40:44.502Z,99455.25
2023-04-21T06:41:46.154Z,99452.94
2023-04-21T06:42:47.837Z,99457.38
2023-04-21T06:43:49.374Z,99452.84
2023-04-21T06:44:51.097Z,99456.31
2023-04-21T06:45:52.704Z,99452.41
2023-04-21T06:46:54.360Z,99447.25
2023-04-21T06:47:55.941Z,99454.19
2023-04-21T06:48:57.604Z,99450.88
2023-04-21T06:49:59.170Z,99449.56
2023-04-21T06:51:01.241Z,99446.66
2023-04-21T06:52:03.831Z,99452.94
2023-04-21T06:53:05.430Z,99445.00
2023-04-21T06:54:07.146Z,99443.69
2023-04-21T06:55:09.066Z,99447.00
2023-04-21T06:56:10.678Z,99448.53
2023-04-21T06:57:12.251Z,99449.22
2023-04-21T06:58:14.193Z,99447.91
2023-04-21T06:59:15.745Z,99449.44
2023-04-21T07:00:17.594Z,99445.47
2023-04-21T07:01:19.289Z,99447.84
2023-04-21T07:02:20.940Z,99445.88
2023-04-21T07:03:22.692Z,99445.88
2023-04-21T07:04:24.491Z,99446.53
2023-04-21T07:05:26.288Z,99442.91
2023-04-21T07:06:27.913Z,99445.69
2023-04-21T07:07:29.475Z,99449.06
2023-04-21T07:08:31.069Z,99441.47
2023-04-21T07:09:32.652Z,99438.22
2023-04-21T07:10:34.221Z,99436.94
2023-04-21T07:11:36.102Z,99439.81
2023-04-21T07:12:37.773Z,99439.66
2023-04-21T07:13:39.357Z,99439.16
2023-04-21T07:14:40.997Z,99439.66
2023-04-21T07:15:42.675Z,99440.31
2023-04-21T07:16:44.290Z,99442.97
2023-04-21T07:17:46.034Z,99441.59
2023-04-21T07:18:47.723Z,99437.16
2023-04-21T07:19:49.298Z,99442.31
2023-04-21T07:20:50.978Z,99443.66
2023-04-21T07:21:52.620Z,99441.66
2023-04-21T07:22:54.252Z,99445.19
2023-04-21T07:23:55.821Z,99438.75
2023-04-21T07:24:57.359Z,99442.06
2023-04-21T07:25:59.360Z,99442.94
2023-04-21T07:27:01.506Z,99448.72
2023-04-21T07:28:03.895Z,99451.75
2023-04-21T07:29:05.847Z,99450.09
2023-04-21T07:30:08.114Z,99452.97
2023-04-21T07:31:09.779Z,99444.53
2023-04-21T07:32:11.493Z,99450.03
2023-04-21T07:33:13.911Z,99447.91
2023-04-21T07:34:15.635Z,99453.22
2023-04-21T07:35:19.898Z,99448.75
2023-04-21T07:36:21.536Z,99443.63
2023-04-21T07:37:24.541Z,99445.63
2023-04-21T07:38:26.591Z,99452.25
2023-04-21T07:39:28.195Z,99449.94
2023-04-21T07:40:29.873Z,99450.75
2023-04-21T07:41:31.461Z,99449.47
2023-04-21T07:42:33.173Z,99439.19
2023-04-21T07:43:34.834Z,99436.41
2023-04-21T07:44:36.596Z,99441.38
2023-04-21T07:45:38.160Z,99442.56
2023-04-21T07:46:39.790Z,99438.41
2023-04-21T07:47:41.407Z,99439.09
2023-04-21T07:48:43.025Z,99439.41
2023-04-21T07:49:44.661Z,99442.91
2023-04-21T07:50:46.266Z,99436.00
2023-04-21T07:51:47.895Z,99438.84
2023-04-21T07:52:49.528Z,99436.00
2023-04-21T07:53:51.530Z,99429.56
2023-04-21T07:54:53.150Z,99435.19
2023-04-21T07:55:54.769Z,99427.94
2023-04-21T07:56:56.393Z,99435.38
2023-04-21T07:57:58.024Z,99433.53
2023-04-21T07:58:59.609Z,99436.38
2023-04-21T08:00:01.251Z,99424.44
2023-04-21T08:01:02.924Z,99426.59
2023-04-21T08:02:04.958Z,99429.25
2023-04-21T08:03:06.817Z,99426.59
2023-04-21T08:04:08.894Z,99428.28
2023-04-21T08:05:10.780Z,99424.28
2023-04-21T08:06:13.077Z,99432.75
2023-04-21T08:07:14.917Z,99427.28
2023-04-21T08:08:16.619Z,99429.28
2023-04-21T08:09:18.580Z,99434.06
2023-04-21T08:10:20.452Z,99430.59
2023-04-21T08:11:22.454Z,99430.41
2023-04-21T08:12:24.335Z,99430.41
2023-04-21T08:13:25.957Z,99426.59
2023-04-21T08:14:27.702Z,99431.06
2023-04-21T08:15:29.333Z,99433.88
2023-04-21T08:16:30.998Z,99428.56
2023-04-21T08:17:32.724Z,99432.22
2023-04-21T08:18:34.445Z,99433.19
2023-04-21T08:19:36.061Z,99430.88
2023-04-21T08:20:37.766Z,99432.69
2023-04-21T08:21:39.575Z,99430.22
2023-04-21T08:22:41.284Z,99436.84
2023-04-21T08:23:43.154Z,99432.34
2023-04-21T08:24:44.774Z,99431.84
2023-04-21T08:25:46.366Z,99433.97
2023-04-21T08:26:48.005Z,99430.34
2023-04-21T08:27:49.565Z,99427.84
2023-04-21T08:28:51.783Z,99431.16
2023-04-21T08:29:53.342Z,99430.63
2023-04-21T08:30:54.964Z,99432.59
2023-04-21T08:31:56.686Z,99431.44
2023-04-21T08:32:58.320Z,99429.56
2023-04-21T08:34:02.264Z,99430.91
2023-04-21T08:35:05.067Z,99434.03
2023-04-21T08:36:15.034Z,99426.53
2023-04-21T08:37:21.093Z,99425.53
2023-04-21T08:38:22.700Z,99427.63
2023-04-21T08:39:24.345Z,99427.13
2023-04-21T08:40:34.325Z,99419.59
2023-04-21T08:41:38.937Z,99415.88
2023-04-21T08:42:40.571Z,99422.69
2023-04-21T08:43:42.162Z,99413.34
2023-04-21T08:44:44.222Z,99422.66
2023-04-21T08:45:46.154Z,99420.94
2023-04-21T08:46:50.668Z,99416.75
2023-04-21T08:47:52.704Z,99415.88
2023-04-21T08:48:55.439Z,99418.50
2023-04-21T08:49:57.606Z,99417.69
2023-04-21T08:50:59.231Z,99422.03
2023-04-21T08:52:00.964Z,99422.53
2023-04-21T08:53:02.565Z,99413.44
2023-04-21T08:54:04.212Z,99414.91
2023-04-21T08:55:06.553Z,99409.19
2023-04-21T08:56:11.438Z,99408.28
2023-04-21T08:57:15.988Z,99411.41
2023-04-21T08:58:17.949Z,99409.88
2023-04-21T08:59:19.799Z,99406.84
2023-04-21T09:00:22.053Z,99407.97
2023-04-21T09:01:23.872Z,99407.44
2023-04-21T09:02:25.678Z,99399.06
2023-04-21T09:03:28.805Z,99404.41
2023-04-21T09:04:30.835Z,99401.25
2023-04-21T09:05:34.390Z,99402.75
2023-04-21T09:06:42.199Z,99391.97
2023-04-21T09:07:43.990Z,99396.38
2023-04-21T09:08:54.768Z,99399.88
2023-04-21T09:09:57.075Z,99404.75
2023-04-21T09:11:00.172Z,99401.03
2023-04-21T09:13:35.633Z,99397.91
2023-04-21T09:14:37.273Z,99396.22
2023-04-21T09:15:50.444Z,99402.22
2023-04-21T09:17:00.945Z,99394.78
2023-04-21T09:18:02.696Z,99396.59
2023-04-21T09:19:14.740Z,99396.06
2023-04-21T09:20:21.859Z,99395.50
2023-04-21T09:22:29.980Z,99392.84
2023-04-21T09:23:31.712Z,99395.78
2023-04-21T09:24:33.727Z,99396.13
2023-04-21T09:25:41.742Z,99399.56
2023-04-21T09:26:43.666Z,99397.00
2023-04-21T09:27:46.268Z,99395.25
2023-04-21T09:28:49.427Z,99395.31
2023-04-21T09:29:51.126Z,99389.31
2023-04-21T09:30:55.834Z,99389.75
2023-04-21T09:31:57.453Z,99384.88
2023-04-21T09:32:59.142Z,99390.59
2023-04-21T09:34:01.557Z,99386.97
2023-04-21T09:35:03.499Z,99387.88
2023-04-21T09:36:05.478Z,99383.84
2023-04-21T09:37:07.032Z,99383.84
2023-04-21T09:38:12.579Z,99383.06
2023-04-21T09:39:34.270Z,99385.38
2023-04-21T09:40:35.973Z,99385.63
2023-04-21T09:41:37.659Z,99384.63
2023-04-21T09:42:40.983Z,99381.38
2023-04-21T09:43:43.622Z,99377.31
2023-04-21T09:44:52.423Z,99380.44
2023-04-21T09:46:03.607Z,99370.22
2023-04-21T09:47:06.194Z,99378.03
2023-04-21T09:48:09.632Z,99377.47
2023-04-21T09:49:13.783Z,99369.91
2023-04-21T09:50:19.570Z,99372.78
2023-04-21T09:51:46.013Z,99375.53
2023-04-21T09:52:50.577Z,99370.63
2023-04-21T09:53:58.097Z,99358.66
2023-04-21T09:55:02.866Z,99363.53
2023-04-21T09:56:06.287Z,99361.66
2023-04-21T09:57:13.372Z,99354.22
2023-04-21T09:58:16.649Z,99368.97
2023-04-21T09:59:23.381Z,99351.16
2023-04-21T10:00:27.944Z,99357.00
2023-04-21T10:01:30.407Z,99358.75
2023-04-21T10:02:35.324Z,99359.84
2023-04-21T10:03:39.194Z,99357.03
2023-04-21T10:04:42.232Z,99353.06
2023-04-21T10:05:44.284Z,99358.34
2023-04-21T10:06:47.671Z,99350.63
2023-04-21T10:07:50.074Z,99347.56
2023-04-21T10:08:54.412Z,99353.75
2023-04-21T10:09:59.032Z,99347.03
2023-04-21T10:11:00.947Z,99348.50
2023-04-21T10:12:04.478Z,99343.41
2023-04-21T10:13:07.104Z,99348.56
2023-04-21T10:14:09.338Z,99342.63
2023-04-21T10:15:29.803Z,99343.53
2023-04-21T10:16:31.812Z,99339.03
2023-04-21T10:17:35.435Z,99336.75
2023-04-21T10:18:46.406Z,99341.06
2023-04-21T10:19:53.531Z,99336.97
2023-04-21T10:21:01.347Z,99338.09
2023-04-21T10:22:02.970Z,99331.94
2023-04-21T10:23:04.611Z,99325.81
2023-04-21T10:24:06.959Z,99342.16
2023-04-21T10:25:08.926Z,99327.78
2023-04-21T10:26:21.684Z,99340.34
2023-04-21T10:27:37.676Z,99331.91
2023-04-21T10:28:56.251Z,99326.53
2023-04-21T10:29:59.194Z,99326.00
2023-04-21T10:31:23.111Z,99333.91
2023-04-21T10:32:43.667Z,99327.41
2023-04-21T10:34:07.312Z,99328.56
2023-04-21T10:35:16.640Z,99337.69
2023-04-21T10:36:24.900Z,99329.41
2023-04-21T10:37:26.526Z,99325.38
2023-04-21T10:38:41.475Z,99323.13
2023-04-21T10:39:45.579Z,99325.25
2023-04-21T10:40:47.180Z,99323.66
2023-04-21T10:41:48.798Z,99318.00
2023-04-21T10:42:50.420Z,99320.72
2023-04-21T10:43:52.031Z,99321.13
2023-04-21T10:45:01.376Z,99316.69
2023-04-21T10:46:32.031Z,99317.25
2023-04-21T10:47:42.023Z,99315.63
2023-04-21T10:48:52.419Z,99316.69
2023-04-21T10:49:56.444Z,99318.53
2023-04-21T10:50:58.655Z,99318.53
2023-04-21T10:52:00.283Z,99314.47
2023-04-21T10:53:11.992Z,99317.31
2023-04-21T10:54:14.612Z,99309.66
2023-04-21T10:55:16.360Z,99314.16
2023-04-21T10:56:18.604Z,99314.94
2023-04-21T10:57:20.518Z,99313.41
2023-04-21T10:58:23.866Z,99307.53
2023-04-21T10:59:27.122Z,99310.44
2023-04-21T11:00:28.882Z,99301.13
2023-04-21T11:01:31.326Z,99301.06
2023-04-21T11:02:36.530Z,99301.41
2023-04-21T11:03:40.285Z,99302.81
2023-04-21T11:04:42.758Z,99298.59
2023-04-21T11:05:44.570Z,99302.72
2023-04-21T11:07:11.427Z,99302.22
2023-04-21T11:08:14.961Z,99297.81
2023-04-21T11:09:16.647Z,99298.84
2023-04-21T11:10:18.334Z,99294.50
2023-04-21T11:11:23.782Z,99298.09
2023-04-21T11:12:33.671Z,99302.75
2023-04-21T11:13:35.317Z,99297.75
2023-04-21T11:14:39.703Z,99301.19
2023-04-21T11:15:41.378Z,99292.50
2023-04-21T11:16:43.101Z,99289.31
2023-04-21T11:17:45.884Z,99286.13
2023-04-21T11:18:48.167Z,99284.63
2023-04-21T11:19:58.910Z,99295.03
2023-04-21T11:21:11.954Z,99287.44
2023-04-21T11:22:13.698Z,99285.56
2023-04-21T11:23:18.283Z,99288.38
2023-04-21T11:24:21.725Z,99289.50
2023-04-21T11:25:23.515Z,99283.00
2023-04-21T11:26:53.887Z,99290.97
2023-04-21T11:27:56.573Z,99278.97
2023-04-21T11:29:08.487Z,99280.50
2023-04-21T11:30:11.160Z,99278.97
2023-04-21T11:31:12.943Z,99283.97
2023-04-21T11:32:16.010Z,99272.06
2023-04-21T11:33:17.758Z,99275.94
2023-04-21T11:34:22.685Z,99283.56
2023-04-21T11:35:24.390Z,99275.59
2023-04-21T11:36:26.266Z,99278.72
2023-04-21T11:37:28.095Z,99276.19
2023-04-21T11:38:37.513Z,99277.53
2023-04-21T11:39:41.112Z,99283.56
2023-04-21T11:40:47.682Z,99278.34
2023-04-21T11:41:51.513Z,99276.63
2023-04-21T11:42:53.242Z,99275.53
2023-04-21T11:43:54.833Z,99270.88
2023-04-21T11:44:57.025Z,99277.56
2023-04-21T11:46:31.662Z,99278.22
2023-04-21T11:47:33.289Z,99276.38
2023-04-21T11:48:34.914Z,99274.81
2023-04-21T11:49:44.659Z,99273.28
2023-04-21T11:50:50.562Z,99272.38
2023-04-21T11:51:52.522Z,99271.72
2023-04-21T11:52:54.144Z,99272.53
2023-04-21T11:53:58.575Z,99265.75
2023-04-21T11:55:01.149Z,99278.25
2023-04-21T11:56:02.807Z,99266.31
2023-04-21T11:57:05.386Z,99266.31
2023-04-21T11:58:07.758Z,99269.78
2023-04-21T11:59:13.499Z,99270.81
2023-04-21T12:00:15.803Z,99260.59
2023-04-21T12:01:17.459Z,99267.13
2023-04-21T12:02:27.457Z,99264.03
2023-04-21T12:03:29.378Z,99264.75
2023-04-21T12:04:33.689Z,99264.56
2023-04-21T12:05:36.885Z,99269.25
2023-04-21T12:06:38.568Z,99261.44
2023-04-21T12:07:44.872Z,99271.91
2023-04-21T12:08:46.479Z,99258.59
2023-04-21T12:09:52.027Z,99266.56
2023-04-21T12:10:53.735Z,99259.25
2023-04-21T12:11:57.643Z,99260.53
2023-04-21T12:12:59.380Z,99254.47
2023-04-21T12:14:01.655Z,99252.69
2023-04-21T12:15:03.429Z,99254.72
2023-04-21T12:16:05.520Z,99253.41
2023-04-21T12:17:07.551Z,99252.31
2023-04-21T12:18:13.301Z,99255.22
2023-04-21T12:19:41.075Z,99251.81
2023-04-21T12:20:50.217Z,99251.34